Potters Fork, Kentucky
Current Conditions -  °F | °C
As of 11:35 AM on Friday 19 Dec 2014 (Local Time) from KLNP Reporting Station
Clear Clear  
Wind Chill: 32°   Ceiling: Unl
Heat Index: 36°   Visibility: 10mi
Dew Point: 25°   Wind: 5mph
Humidity: 65%   Direction: 20°NNE
Pressure: 30.16"   Gusts: NA
Location:  37.1955°N, 82.6325°W
Report Text: KLNP 191635Z AUTO 02004KT 10SM CLR 02/M04 A3016 RMK AO2
Loading
Personal Weather Stations






























Interactive Weather Map New forecast layout! Learn more

10-Day Weather Forecast

Advertisements
Track Severe Weather on mobile